sensor_id;sensor_type;location;lat;lon;timestamp;P1;durP1;ratioP1;P2;durP2;ratioP2
59062;SDS011;44851;45.648;9.004;2023-03-14T00:01:47;30.07;;;19.90;;
59062;SDS011;44851;45.648;9.004;2023-03-14T00:04:13;33.20;;;21.87;;
59062;SDS011;44851;45.648;9.004;2023-03-14T00:06:39;31.20;;;20.60;;
59062;SDS011;44851;45.648;9.004;2023-03-14T00:09:04;30.53;;;20.30;;
59062;SDS011;44851;45.648;9.004;2023-03-14T00:11:30;29.47;;;19.73;;
59062;SDS011;44851;45.648;9.004;2023-03-14T00:13:56;29.77;;;19.20;;
59062;SDS011;44851;45.648;9.004;2023-03-14T00:16:21;29.60;;;20.73;;
59062;SDS011;44851;45.648;9.004;2023-03-14T00:18:47;28.83;;;19.50;;
59062;SDS011;44851;45.648;9.004;2023-03-14T00:21:12;29.60;;;18.17;;
59062;SDS011;44851;45.648;9.004;2023-03-14T00:23:39;26.27;;;18.37;;
59062;SDS011;44851;45.648;9.004;2023-03-14T00:26:10;30.80;;;20.57;;
59062;SDS011;44851;45.648;9.004;2023-03-14T00:28:38;30.17;;;19.83;;
59062;SDS011;44851;45.648;9.004;2023-03-14T00:31:05;25.53;;;18.37;;
59062;SDS011;44851;45.648;9.004;2023-03-14T00:33:32;29.07;;;19.10;;
59062;SDS011;44851;45.648;9.004;2023-03-14T00:36:07;28.97;;;20.57;;
59062;SDS011;44851;45.648;9.004;2023-03-14T00:38:35;26.83;;;19.43;;
59062;SDS011;44851;45.648;9.004;2023-03-14T00:41:05;30.80;;;19.13;;
59062;SDS011;44851;45.648;9.004;2023-03-14T00:43:31;30.57;;;19.53;;
59062;SDS011;44851;45.648;9.004;2023-03-14T00:45:57;33.60;;;19.97;;
59062;SDS011;44851;45.648;9.004;2023-03-14T00:48:23;28.53;;;19.67;;
59062;SDS011;44851;45.648;9.004;2023-03-14T00:50:48;29.37;;;19.10;;
59062;SDS011;44851;45.648;9.004;2023-03-14T00:53:14;24.83;;;17.73;;
59062;SDS011;44851;45.648;9.004;2023-03-14T00:55:40;26.57;;;18.43;;
59062;SDS011;44851;45.648;9.004;2023-03-14T00:58:10;26.20;;;19.87;;
59062;SDS011;44851;45.648;9.004;2023-03-14T01:00:37;24.97;;;16.97;;
59062;SDS011;44851;45.648;9.004;2023-03-14T01:03:03;25.07;;;17.77;;
59062;SDS011;44851;45.648;9.004;2023-03-14T01:05:29;29.70;;;18.10;;
59062;SDS011;44851;45.648;9.004;2023-03-14T01:07:55;28.57;;;19.20;;
59062;SDS011;44851;45.648;9.004;2023-03-14T01:10:21;27.70;;;18.10;;
59062;SDS011;44851;45.648;9.004;2023-03-14T01:12:47;33.80;;;18.97;;
59062;SDS011;44851;45.648;9.004;2023-03-14T01:15:13;29.67;;;19.63;;
59062;SDS011;44851;45.648;9.004;2023-03-14T01:17:38;26.03;;;18.80;;
59062;SDS011;44851;45.648;9.004;2023-03-14T01:20:04;30.13;;;19.00;;
59062;SDS011;44851;45.648;9.004;2023-03-14T01:22:34;30.63;;;18.70;;
59062;SDS011;44851;45.648;9.004;2023-03-14T01:25:00;28.40;;;18.80;;
59062;SDS011;44851;45.648;9.004;2023-03-14T01:27:25;26.63;;;18.13;;
59062;SDS011;44851;45.648;9.004;2023-03-14T01:29:51;25.17;;;18.33;;
59062;SDS011;44851;45.648;9.004;2023-03-14T01:32:16;27.47;;;19.23;;
59062;SDS011;44851;45.648;9.004;2023-03-14T01:34:42;25.37;;;17.13;;
59062;SDS011;44851;45.648;9.004;2023-03-14T01:37:07;25.10;;;17.30;;
59062;SDS011;44851;45.648;9.004;2023-03-14T01:39:33;30.07;;;19.23;;
59062;SDS011;44851;45.648;9.004;2023-03-14T01:41:59;28.07;;;18.27;;
59062;SDS011;44851;45.648;9.004;2023-03-14T01:44:25;29.17;;;17.87;;
59062;SDS011;44851;45.648;9.004;2023-03-14T01:46:51;26.87;;;17.93;;
59062;SDS011;44851;45.648;9.004;2023-03-14T01:49:32;25.77;;;18.00;;
59062;SDS011;44851;45.648;9.004;2023-03-14T01:54:54;32.17;;;18.43;;
59062;SDS011;44851;45.648;9.004;2023-03-14T01:57:27;27.43;;;18.30;;
59062;SDS011;44851;45.648;9.004;2023-03-14T02:00:29;25.67;;;17.50;;
59062;SDS011;44851;45.648;9.004;2023-03-14T02:02:51;28.03;;;18.43;;
59062;SDS011;44851;45.648;9.004;2023-03-14T02:05:23;25.80;;;17.10;;
59062;SDS011;44851;45.648;9.004;2023-03-14T02:07:53;32.23;;;19.83;;
59062;SDS011;44851;45.648;9.004;2023-03-14T02:10:21;26.37;;;18.87;;
59062;SDS011;44851;45.648;9.004;2023-03-14T02:12:49;27.77;;;19.60;;
59062;SDS011;44851;45.648;9.004;2023-03-14T02:15:17;30.83;;;19.20;;
59062;SDS011;44851;45.648;9.004;2023-03-14T02:17:42;26.17;;;18.83;;
59062;SDS011;44851;45.648;9.004;2023-03-14T02:22:45;28.43;;;19.80;;
59062;SDS011;44851;45.648;9.004;2023-03-14T02:25:16;25.33;;;18.67;;
59062;SDS011;44851;45.648;9.004;2023-03-14T02:27:52;32.87;;;18.43;;
59062;SDS011;44851;45.648;9.004;2023-03-14T02:30:22;33.10;;;18.80;;
59062;SDS011;44851;45.648;9.004;2023-03-14T02:32:51;26.47;;;17.80;;
59062;SDS011;44851;45.648;9.004;2023-03-14T02:35:24;27.40;;;17.53;;
59062;SDS011;44851;45.648;9.004;2023-03-14T02:38:09;24.90;;;16.47;;
59062;SDS011;44851;45.648;9.004;2023-03-14T02:40:53;25.90;;;15.73;;
59062;SDS011;44851;45.648;9.004;2023-03-14T02:43:19;26.10;;;17.93;;
59062;SDS011;44851;45.648;9.004;2023-03-14T02:45:45;25.50;;;15.97;;
59062;SDS011;44851;45.648;9.004;2023-03-14T02:48:22;30.90;;;18.00;;
59062;SDS011;44851;45.648;9.004;2023-03-14T02:50:52;22.13;;;16.33;;
59062;SDS011;44851;45.648;9.004;2023-03-14T02:53:21;27.13;;;16.87;;
59062;SDS011;44851;45.648;9.004;2023-03-14T02:55:50;27.23;;;17.33;;
59062;SDS011;44851;45.648;9.004;2023-03-14T02:58:16;28.50;;;17.00;;
59062;SDS011;44851;45.648;9.004;2023-03-14T03:00:43;27.73;;;17.43;;
59062;SDS011;44851;45.648;9.004;2023-03-14T03:03:08;24.90;;;16.53;;
59062;SDS011;44851;45.648;9.004;2023-03-14T03:05:34;25.13;;;16.37;;
59062;SDS011;44851;45.648;9.004;2023-03-14T03:08:00;24.30;;;16.83;;
59062;SDS011;44851;45.648;9.004;2023-03-14T03:10:25;26.20;;;17.67;;
59062;SDS011;44851;45.648;9.004;2023-03-14T03:12:52;29.20;;;16.73;;
59062;SDS011;44851;45.648;9.004;2023-03-14T03:15:17;28.50;;;17.60;;
59062;SDS011;44851;45.648;9.004;2023-03-14T03:17:43;23.23;;;15.90;;
59062;SDS011;44851;45.648;9.004;2023-03-14T03:20:08;24.80;;;17.13;;
59062;SDS011;44851;45.648;9.004;2023-03-14T03:22:37;24.60;;;17.17;;
59062;SDS011;44851;45.648;9.004;2023-03-14T03:25:03;24.83;;;16.03;;
59062;SDS011;44851;45.648;9.004;2023-03-14T03:27:30;23.03;;;17.30;;
59062;SDS011;44851;45.648;9.004;2023-03-14T03:29:57;22.87;;;16.93;;
59062;SDS011;44851;45.648;9.004;2023-03-14T03:32:22;25.40;;;17.90;;
59062;SDS011;44851;45.648;9.004;2023-03-14T03:34:48;24.90;;;17.07;;
59062;SDS011;44851;45.648;9.004;2023-03-14T03:37:13;23.47;;;16.47;;
59062;SDS011;44851;45.648;9.004;2023-03-14T03:39:39;31.80;;;19.17;;
59062;SDS011;44851;45.648;9.004;2023-03-14T03:42:04;24.43;;;17.30;;
59062;SDS011;44851;45.648;9.004;2023-03-14T03:44:30;27.73;;;18.67;;
59062;SDS011;44851;45.648;9.004;2023-03-14T03:46:55;24.27;;;17.03;;
59062;SDS011;44851;45.648;9.004;2023-03-14T03:49:20;23.60;;;15.93;;
59062;SDS011;44851;45.648;9.004;2023-03-14T03:51:46;24.47;;;16.03;;
59062;SDS011;44851;45.648;9.004;2023-03-14T03:54:12;22.47;;;15.23;;
59062;SDS011;44851;45.648;9.004;2023-03-14T03:56:37;22.73;;;15.20;;
59062;SDS011;44851;45.648;9.004;2023-03-14T03:59:03;22.60;;;15.60;;
59062;SDS011;44851;45.648;9.004;2023-03-14T04:01:28;24.63;;;16.30;;
59062;SDS011;44851;45.648;9.004;2023-03-14T04:03:53;24.07;;;15.87;;
59062;SDS011;44851;45.648;9.004;2023-03-14T04:06:19;23.17;;;15.10;;
59062;SDS011;44851;45.648;9.004;2023-03-14T04:08:44;23.17;;;16.10;;
59062;SDS011;44851;45.648;9.004;2023-03-14T04:11:10;23.47;;;15.53;;
59062;SDS011;44851;45.648;9.004;2023-03-14T04:13:35;23.17;;;15.17;;
59062;SDS011;44851;45.648;9.004;2023-03-14T04:16:01;21.93;;;15.07;;
59062;SDS011;44851;45.648;9.004;2023-03-14T04:18:29;21.87;;;15.80;;
59062;SDS011;44851;45.648;9.004;2023-03-14T04:20:56;21.63;;;15.23;;
59062;SDS011;44851;45.648;9.004;2023-03-14T04:23:23;22.10;;;14.53;;
59062;SDS011;44851;45.648;9.004;2023-03-14T04:25:52;22.13;;;15.10;;
59062;SDS011;44851;45.648;9.004;2023-03-14T04:28:18;23.60;;;15.10;;
59062;SDS011;44851;45.648;9.004;2023-03-14T04:30:43;20.77;;;15.17;;
59062;SDS011;44851;45.648;9.004;2023-03-14T04:33:09;19.90;;;13.90;;
59062;SDS011;44851;45.648;9.004;2023-03-14T04:35:35;24.30;;;15.43;;
59062;SDS011;44851;45.648;9.004;2023-03-14T04:38:01;21.83;;;15.20;;
59062;SDS011;44851;45.648;9.004;2023-03-14T04:40:26;22.77;;;15.33;;
59062;SDS011;44851;45.648;9.004;2023-03-14T04:42:52;20.00;;;14.80;;
59062;SDS011;44851;45.648;9.004;2023-03-14T04:45:17;21.87;;;15.83;;
59062;SDS011;44851;45.648;9.004;2023-03-14T04:47:43;21.10;;;14.70;;
59062;SDS011;44851;45.648;9.004;2023-03-14T04:50:08;24.33;;;15.73;;
59062;SDS011;44851;45.648;9.004;2023-03-14T04:52:35;23.30;;;16.67;;
59062;SDS011;44851;45.648;9.004;2023-03-14T04:55:00;25.07;;;16.10;;
59062;SDS011;44851;45.648;9.004;2023-03-14T04:57:26;25.50;;;17.47;;
59062;SDS011;44851;45.648;9.004;2023-03-14T04:59:51;26.43;;;16.03;;
59062;SDS011;44851;45.648;9.004;2023-03-14T05:02:17;24.67;;;16.00;;
59062;SDS011;44851;45.648;9.004;2023-03-14T05:04:42;23.13;;;16.37;;
59062;SDS011;44851;45.648;9.004;2023-03-14T05:07:07;26.83;;;18.37;;
59062;SDS011;44851;45.648;9.004;2023-03-14T05:09:33;23.90;;;17.20;;
59062;SDS011;44851;45.648;9.004;2023-03-14T05:11:58;22.63;;;15.53;;
59062;SDS011;44851;45.648;9.004;2023-03-14T05:14:24;22.97;;;16.23;;
59062;SDS011;44851;45.648;9.004;2023-03-14T05:16:49;23.50;;;16.10;;
59062;SDS011;44851;45.648;9.004;2023-03-14T05:19:15;26.30;;;18.10;;
59062;SDS011;44851;45.648;9.004;2023-03-14T05:21:40;24.50;;;16.30;;
59062;SDS011;44851;45.648;9.004;2023-03-14T05:24:06;23.93;;;16.77;;
59062;SDS011;44851;45.648;9.004;2023-03-14T05:26:31;26.77;;;17.70;;
59062;SDS011;44851;45.648;9.004;2023-03-14T05:28:56;27.50;;;17.30;;
59062;SDS011;44851;45.648;9.004;2023-03-14T05:31:22;25.40;;;16.53;;
59062;SDS011;44851;45.648;9.004;2023-03-14T05:33:47;29.07;;;17.93;;
59062;SDS011;44851;45.648;9.004;2023-03-14T05:36:13;26.10;;;17.80;;
59062;SDS011;44851;45.648;9.004;2023-03-14T05:38:38;25.03;;;17.10;;
59062;SDS011;44851;45.648;9.004;2023-03-14T05:41:04;26.03;;;17.23;;
59062;SDS011;44851;45.648;9.004;2023-03-14T05:43:29;28.23;;;17.77;;
59062;SDS011;44851;45.648;9.004;2023-03-14T05:45:55;27.60;;;17.93;;
59062;SDS011;44851;45.648;9.004;2023-03-14T05:48:20;24.63;;;16.90;;
59062;SDS011;44851;45.648;9.004;2023-03-14T05:50:46;21.03;;;15.17;;
59062;SDS011;44851;45.648;9.004;2023-03-14T05:53:13;24.50;;;17.60;;
59062;SDS011;44851;45.648;9.004;2023-03-14T05:55:39;24.33;;;17.67;;
59062;SDS011;44851;45.648;9.004;2023-03-14T05:58:04;26.53;;;16.10;;
59062;SDS011;44851;45.648;9.004;2023-03-14T06:00:30;24.10;;;17.17;;
59062;SDS011;44851;45.648;9.004;2023-03-14T06:02:55;27.30;;;18.63;;
59062;SDS011;44851;45.648;9.004;2023-03-14T06:05:20;25.23;;;17.57;;
59062;SDS011;44851;45.648;9.004;2023-03-14T06:07:46;23.80;;;17.13;;
59062;SDS011;44851;45.648;9.004;2023-03-14T06:10:11;28.67;;;18.33;;
59062;SDS011;44851;45.648;9.004;2023-03-14T06:12:37;26.77;;;15.73;;
59062;SDS011;44851;45.648;9.004;2023-03-14T06:15:03;21.80;;;15.07;;
59062;SDS011;44851;45.648;9.004;2023-03-14T06:17:29;25.77;;;15.90;;
59062;SDS011;44851;45.648;9.004;2023-03-14T06:19:54;24.83;;;16.10;;
59062;SDS011;44851;45.648;9.004;2023-03-14T06:22:20;21.70;;;15.20;;
59062;SDS011;44851;45.648;9.004;2023-03-14T06:24:45;24.93;;;15.97;;
59062;SDS011;44851;45.648;9.004;2023-03-14T06:27:11;25.80;;;16.43;;
59062;SDS011;44851;45.648;9.004;2023-03-14T06:29:36;23.17;;;16.67;;
59062;SDS011;44851;45.648;9.004;2023-03-14T06:32:01;27.00;;;17.47;;
59062;SDS011;44851;45.648;9.004;2023-03-14T06:34:27;25.50;;;16.47;;
59062;SDS011;44851;45.648;9.004;2023-03-14T06:36:53;25.63;;;16.67;;
59062;SDS011;44851;45.648;9.004;2023-03-14T06:39:18;22.30;;;15.23;;
59062;SDS011;44851;45.648;9.004;2023-03-14T06:41:43;27.73;;;17.03;;
59062;SDS011;44851;45.648;9.004;2023-03-14T06:44:09;26.87;;;17.63;;
59062;SDS011;44851;45.648;9.004;2023-03-14T06:46:34;24.53;;;16.97;;
59062;SDS011;44851;45.648;9.004;2023-03-14T06:49:00;22.37;;;17.10;;
59062;SDS011;44851;45.648;9.004;2023-03-14T06:51:25;23.27;;;17.53;;
59062;SDS011;44851;45.648;9.004;2023-03-14T06:53:50;30.43;;;18.97;;
59062;SDS011;44851;45.648;9.004;2023-03-14T06:56:16;32.00;;;18.80;;
59062;SDS011;44851;45.648;9.004;2023-03-14T06:58:41;26.67;;;18.93;;
59062;SDS011;44851;45.648;9.004;2023-03-14T07:01:12;31.87;;;19.60;;
59062;SDS011;44851;45.648;9.004;2023-03-14T07:03:46;29.13;;;19.20;;
59062;SDS011;44851;45.648;9.004;2023-03-14T07:06:11;24.73;;;18.00;;
59062;SDS011;44851;45.648;9.004;2023-03-14T07:08:37;30.60;;;19.73;;
59062;SDS011;44851;45.648;9.004;2023-03-14T07:11:03;35.37;;;21.23;;
59062;SDS011;44851;45.648;9.004;2023-03-14T07:13:29;33.50;;;20.67;;
59062;SDS011;44851;45.648;9.004;2023-03-14T07:15:54;33.63;;;22.37;;
59062;SDS011;44851;45.648;9.004;2023-03-14T07:18:20;41.87;;;23.50;;
59062;SDS011;44851;45.648;9.004;2023-03-14T07:20:46;38.10;;;24.43;;
59062;SDS011;44851;45.648;9.004;2023-03-14T07:23:11;42.07;;;26.63;;
59062;SDS011;44851;45.648;9.004;2023-03-14T07:25:36;40.20;;;25.43;;
59062;SDS011;44851;45.648;9.004;2023-03-14T07:28:02;39.50;;;24.47;;
59062;SDS011;44851;45.648;9.004;2023-03-14T07:30:27;45.97;;;26.77;;
59062;SDS011;44851;45.648;9.004;2023-03-14T07:32:53;39.63;;;24.77;;
59062;SDS011;44851;45.648;9.004;2023-03-14T07:35:18;44.43;;;27.93;;
59062;SDS011;44851;45.648;9.004;2023-03-14T07:37:44;41.43;;;25.87;;
59062;SDS011;44851;45.648;9.004;2023-03-14T07:40:09;37.40;;;24.93;;
59062;SDS011;44851;45.648;9.004;2023-03-14T07:42:37;37.67;;;23.37;;
59062;SDS011;44851;45.648;9.004;2023-03-14T07:45:02;35.80;;;23.17;;
59062;SDS011;44851;45.648;9.004;2023-03-14T07:47:28;38.40;;;24.13;;
59062;SDS011;44851;45.648;9.004;2023-03-14T07:49:53;32.07;;;21.97;;
59062;SDS011;44851;45.648;9.004;2023-03-14T07:52:19;33.27;;;19.60;;
59062;SDS011;44851;45.648;9.004;2023-03-14T07:54:44;30.40;;;20.70;;
59062;SDS011;44851;45.648;9.004;2023-03-14T07:57:10;33.60;;;20.23;;
59062;SDS011;44851;45.648;9.004;2023-03-14T07:59:35;29.27;;;19.93;;
59062;SDS011;44851;45.648;9.004;2023-03-14T08:02:00;31.07;;;20.23;;
59062;SDS011;44851;45.648;9.004;2023-03-14T08:04:26;31.13;;;20.87;;
59062;SDS011;44851;45.648;9.004;2023-03-14T08:06:52;32.80;;;19.90;;
59062;SDS011;44851;45.648;9.004;2023-03-14T08:09:19;31.97;;;20.57;;
59062;SDS011;44851;45.648;9.004;2023-03-14T08:11:44;32.90;;;20.47;;
59062;SDS011;44851;45.648;9.004;2023-03-14T08:14:10;32.63;;;21.43;;
59062;SDS011;44851;45.648;9.004;2023-03-14T08:16:36;32.77;;;19.40;;
59062;SDS011;44851;45.648;9.004;2023-03-14T08:19:01;28.37;;;18.27;;
59062;SDS011;44851;45.648;9.004;2023-03-14T08:21:27;26.70;;;18.03;;
59062;SDS011;44851;45.648;9.004;2023-03-14T08:23:52;29.57;;;18.10;;
59062;SDS011;44851;45.648;9.004;2023-03-14T08:26:18;29.37;;;18.50;;
59062;SDS011;44851;45.648;9.004;2023-03-14T08:28:43;32.23;;;19.47;;
59062;SDS011;44851;45.648;9.004;2023-03-14T08:31:08;29.47;;;18.53;;
59062;SDS011;44851;45.648;9.004;2023-03-14T08:33:34;29.83;;;18.03;;
59062;SDS011;44851;45.648;9.004;2023-03-14T08:35:59;33.60;;;19.53;;
59062;SDS011;44851;45.648;9.004;2023-03-14T08:38:25;30.03;;;19.93;;
59062;SDS011;44851;45.648;9.004;2023-03-14T08:40:55;29.80;;;18.73;;
59062;SDS011;44851;45.648;9.004;2023-03-14T08:43:22;28.43;;;17.30;;
59062;SDS011;44851;45.648;9.004;2023-03-14T08:45:47;26.67;;;17.83;;
59062;SDS011;44851;45.648;9.004;2023-03-14T08:48:12;27.27;;;18.50;;
59062;SDS011;44851;45.648;9.004;2023-03-14T08:50:38;29.50;;;18.17;;
59062;SDS011;44851;45.648;9.004;2023-03-14T08:53:03;25.03;;;17.13;;
59062;SDS011;44851;45.648;9.004;2023-03-14T08:55:29;28.17;;;19.37;;
59062;SDS011;44851;45.648;9.004;2023-03-14T08:57:54;25.97;;;17.40;;
59062;SDS011;44851;45.648;9.004;2023-03-14T09:00:20;26.67;;;17.77;;
59062;SDS011;44851;45.648;9.004;2023-03-14T09:02:45;25.03;;;17.40;;
59062;SDS011;44851;45.648;9.004;2023-03-14T09:05:11;25.80;;;16.10;;
59062;SDS011;44851;45.648;9.004;2023-03-14T09:07:37;25.27;;;17.03;;
59062;SDS011;44851;45.648;9.004;2023-03-14T09:10:04;30.23;;;19.27;;
59062;SDS011;44851;45.648;9.004;2023-03-14T09:12:30;30.93;;;18.20;;
59062;SDS011;44851;45.648;9.004;2023-03-14T09:14:56;27.53;;;17.13;;
59062;SDS011;44851;45.648;9.004;2023-03-14T09:17:21;29.13;;;18.23;;
59062;SDS011;44851;45.648;9.004;2023-03-14T09:19:47;32.60;;;17.87;;
59062;SDS011;44851;45.648;9.004;2023-03-14T09:22:12;37.07;;;19.63;;
59062;SDS011;44851;45.648;9.004;2023-03-14T09:24:39;28.33;;;17.90;;
59062;SDS011;44851;45.648;9.004;2023-03-14T09:27:05;29.47;;;18.27;;
59062;SDS011;44851;45.648;9.004;2023-03-14T09:29:30;28.43;;;16.93;;
59062;SDS011;44851;45.648;9.004;2023-03-14T09:31:56;25.67;;;16.93;;
59062;SDS011;44851;45.648;9.004;2023-03-14T09:34:23;28.23;;;17.80;;
59062;SDS011;44851;45.648;9.004;2023-03-14T09:36:48;30.63;;;18.73;;
59062;SDS011;44851;45.648;9.004;2023-03-14T09:39:14;32.43;;;18.93;;
59062;SDS011;44851;45.648;9.004;2023-03-14T09:41:41;30.33;;;17.73;;
59062;SDS011;44851;45.648;9.004;2023-03-14T09:44:29;26.07;;;17.80;;
59062;SDS011;44851;45.648;9.004;2023-03-14T09:47:06;30.53;;;20.00;;
59062;SDS011;44851;45.648;9.004;2023-03-14T09:49:36;30.40;;;18.97;;
59062;SDS011;44851;45.648;9.004;2023-03-14T09:52:06;23.43;;;16.60;;
59062;SDS011;44851;45.648;9.004;2023-03-14T09:54:39;26.17;;;17.53;;
59062;SDS011;44851;45.648;9.004;2023-03-14T09:57:16;29.17;;;17.17;;
59062;SDS011;44851;45.648;9.004;2023-03-14T09:59:46;26.57;;;16.33;;
59062;SDS011;44851;45.648;9.004;2023-03-14T10:02:18;20.03;;;14.27;;
59062;SDS011;44851;45.648;9.004;2023-03-14T10:04:48;20.20;;;14.33;;
59062;SDS011;44851;45.648;9.004;2023-03-14T10:07:19;22.27;;;14.63;;
59062;SDS011;44851;45.648;9.004;2023-03-14T10:09:57;22.93;;;14.77;;
59062;SDS011;44851;45.648;9.004;2023-03-14T10:12:33;21.70;;;14.60;;
59062;SDS011;44851;45.648;9.004;2023-03-14T10:15:04;18.10;;;12.83;;
59062;SDS011;44851;45.648;9.004;2023-03-14T10:17:38;20.07;;;13.13;;
59062;SDS011;44851;45.648;9.004;2023-03-14T10:20:15;18.27;;;12.63;;
59062;SDS011;44851;45.648;9.004;2023-03-14T10:22:52;18.37;;;13.10;;
59062;SDS011;44851;45.648;9.004;2023-03-14T10:25:27;16.47;;;11.37;;
59062;SDS011;44851;45.648;9.004;2023-03-14T10:27:54;15.13;;;11.20;;
59062;SDS011;44851;45.648;9.004;2023-03-14T10:30:30;15.83;;;11.30;;
59062;SDS011;44851;45.648;9.004;2023-03-14T10:32:59;15.10;;;11.40;;
59062;SDS011;44851;45.648;9.004;2023-03-14T10:35:33;17.27;;;11.90;;
59062;SDS011;44851;45.648;9.004;2023-03-14T10:38:00;15.67;;;10.93;;
59062;SDS011;44851;45.648;9.004;2023-03-14T10:40:33;12.10;;;9.97;;
59062;SDS011;44851;45.648;9.004;2023-03-14T10:43:03;15.87;;;10.43;;
59062;SDS011;44851;45.648;9.004;2023-03-14T10:45:37;22.17;;;13.80;;
59062;SDS011;44851;45.648;9.004;2023-03-14T10:48:06;17.67;;;10.87;;
59062;SDS011;44851;45.648;9.004;2023-03-14T10:50:53;11.70;;;8.67;;
59062;SDS011;44851;45.648;9.004;2023-03-14T10:53:41;12.93;;;9.00;;
59062;SDS011;44851;45.648;9.004;2023-03-14T10:56:27;12.30;;;8.87;;
59062;SDS011;44851;45.648;9.004;2023-03-14T10:58:59;13.50;;;10.60;;
59062;SDS011;44851;45.648;9.004;2023-03-14T11:15:02;12.70;;;9.40;;
59062;SDS011;44851;45.648;9.004;2023-03-14T11:20:32;12.87;;;9.80;;
59062;SDS011;44851;45.648;9.004;2023-03-14T11:25:50;12.77;;;9.30;;
59062;SDS011;44851;45.648;9.004;2023-03-14T11:28:40;11.73;;;8.40;;
59062;SDS011;44851;45.648;9.004;2023-03-14T11:36:46;11.27;;;8.50;;
59062;SDS011;44851;45.648;9.004;2023-03-14T11:39:18;9.97;;;8.43;;
59062;SDS011;44851;45.648;9.004;2023-03-14T11:41:51;10.57;;;8.37;;
59062;SDS011;44851;45.648;9.004;2023-03-14T11:44:25;10.87;;;8.40;;
59062;SDS011;44851;45.648;9.004;2023-03-14T11:50:08;9.17;;;7.50;;
59062;SDS011;44851;45.648;9.004;2023-03-14T11:52:44;11.53;;;8.93;;
59062;SDS011;44851;45.648;9.004;2023-03-14T11:57:53;10.43;;;7.70;;
59062;SDS011;44851;45.648;9.004;2023-03-14T12:00:24;11.43;;;7.87;;
59062;SDS011;44851;45.648;9.004;2023-03-14T12:13:11;11.13;;;7.97;;
59062;SDS011;44851;45.648;9.004;2023-03-14T12:15:40;9.80;;;7.37;;
59062;SDS011;44851;45.648;9.004;2023-03-14T12:18:18;11.10;;;7.97;;
59062;SDS011;44851;45.648;9.004;2023-03-14T12:20:57;9.30;;;7.73;;
59062;SDS011;44851;45.648;9.004;2023-03-14T12:23:25;9.60;;;7.37;;
59062;SDS011;44851;45.648;9.004;2023-03-14T12:26:06;8.90;;;7.80;;
59062;SDS011;44851;45.648;9.004;2023-03-14T12:28:38;12.00;;;7.97;;
59062;SDS011;44851;45.648;9.004;2023-03-14T12:41:51;8.53;;;7.00;;
59062;SDS011;44851;45.648;9.004;2023-03-14T12:46:58;9.53;;;7.00;;
59062;SDS011;44851;45.648;9.004;2023-03-14T12:49:32;9.03;;;7.40;;
59062;SDS011;44851;45.648;9.004;2023-03-14T12:52:00;10.57;;;7.20;;
59062;SDS011;44851;45.648;9.004;2023-03-14T12:54:29;8.47;;;7.57;;
59062;SDS011;44851;45.648;9.004;2023-03-14T12:57:12;10.97;;;7.90;;
59062;SDS011;44851;45.648;9.004;2023-03-14T12:59:51;10.43;;;7.57;;
59062;SDS011;44851;45.648;9.004;2023-03-14T13:05:02;10.67;;;7.20;;
59062;SDS011;44851;45.648;9.004;2023-03-14T13:21:48;11.80;;;7.77;;
59062;SDS011;44851;45.648;9.004;2023-03-14T13:23:56;9.10;;;7.43;;
59062;SDS011;44851;45.648;9.004;2023-03-14T13:26:23;10.57;;;7.83;;
59062;SDS011;44851;45.648;9.004;2023-03-14T13:28:51;8.57;;;7.50;;
59062;SDS011;44851;45.648;9.004;2023-03-14T13:31:25;10.73;;;7.93;;
59062;SDS011;44851;45.648;9.004;2023-03-14T13:33:58;10.87;;;8.57;;
59062;SDS011;44851;45.648;9.004;2023-03-14T13:36:24;11.40;;;8.40;;
59062;SDS011;44851;45.648;9.004;2023-03-14T13:38:57;10.07;;;8.00;;
59062;SDS011;44851;45.648;9.004;2023-03-14T13:41:24;9.57;;;7.30;;
59062;SDS011;44851;45.648;9.004;2023-03-14T13:43:51;8.73;;;6.97;;
59062;SDS011;44851;45.648;9.004;2023-03-14T13:46:19;9.47;;;7.57;;
59062;SDS011;44851;45.648;9.004;2023-03-14T13:48:50;9.20;;;7.33;;
59062;SDS011;44851;45.648;9.004;2023-03-14T13:51:20;11.27;;;7.90;;
59062;SDS011;44851;45.648;9.004;2023-03-14T13:53:51;10.37;;;7.53;;
59062;SDS011;44851;45.648;9.004;2023-03-14T13:56:19;10.20;;;7.67;;
59062;SDS011;44851;45.648;9.004;2023-03-14T13:58:49;9.77;;;7.20;;
59062;SDS011;44851;45.648;9.004;2023-03-14T14:01:16;9.30;;;7.87;;
59062;SDS011;44851;45.648;9.004;2023-03-14T14:03:43;9.57;;;7.87;;
59062;SDS011;44851;45.648;9.004;2023-03-14T14:06:31;9.37;;;7.13;;
59062;SDS011;44851;45.648;9.004;2023-03-14T14:09:10;9.20;;;6.67;;
59062;SDS011;44851;45.648;9.004;2023-03-14T14:11:48;7.60;;;6.33;;
59062;SDS011;44851;45.648;9.004;2023-03-14T14:17:01;9.97;;;6.73;;
59062;SDS011;44851;45.648;9.004;2023-03-14T14:19:33;11.37;;;8.40;;
59062;SDS011;44851;45.648;9.004;2023-03-14T14:22:00;9.40;;;7.37;;
59062;SDS011;44851;45.648;9.004;2023-03-14T14:24:31;10.87;;;7.77;;
59062;SDS011;44851;45.648;9.004;2023-03-14T14:26:59;13.40;;;8.50;;
59062;SDS011;44851;45.648;9.004;2023-03-14T14:29:27;10.17;;;7.07;;
59062;SDS011;44851;45.648;9.004;2023-03-14T14:32:10;10.33;;;7.37;;
59062;SDS011;44851;45.648;9.004;2023-03-14T14:34:56;9.90;;;8.00;;
59062;SDS011;44851;45.648;9.004;2023-03-14T14:37:25;10.23;;;7.40;;
59062;SDS011;44851;45.648;9.004;2023-03-14T14:39:51;10.93;;;7.67;;
59062;SDS011;44851;45.648;9.004;2023-03-14T14:42:19;8.77;;;7.20;;
59062;SDS011;44851;45.648;9.004;2023-03-14T14:44:49;10.47;;;7.53;;
59062;SDS011;44851;45.648;9.004;2023-03-14T14:47:18;10.30;;;7.90;;
59062;SDS011;44851;45.648;9.004;2023-03-14T14:49:49;9.93;;;8.23;;
59062;SDS011;44851;45.648;9.004;2023-03-14T14:52:30;9.70;;;7.43;;
59062;SDS011;44851;45.648;9.004;2023-03-14T14:55:03;13.03;;;8.20;;
59062;SDS011;44851;45.648;9.004;2023-03-14T14:57:38;10.30;;;8.10;;
59062;SDS011;44851;45.648;9.004;2023-03-14T15:00:20;13.60;;;8.63;;
59062;SDS011;44851;45.648;9.004;2023-03-14T15:02:48;10.93;;;7.77;;
59062;SDS011;44851;45.648;9.004;2023-03-14T15:05:18;11.30;;;8.20;;
59062;SDS011;44851;45.648;9.004;2023-03-14T15:07:45;10.93;;;8.70;;
59062;SDS011;44851;45.648;9.004;2023-03-14T15:10:15;13.30;;;8.37;;
59062;SDS011;44851;45.648;9.004;2023-03-14T15:12:42;13.53;;;9.00;;
59062;SDS011;44851;45.648;9.004;2023-03-14T15:15:08;13.30;;;8.10;;
59062;SDS011;44851;45.648;9.004;2023-03-14T15:17:35;11.10;;;8.50;;
59062;SDS011;44851;45.648;9.004;2023-03-14T15:20:02;13.70;;;9.43;;
59062;SDS011;44851;45.648;9.004;2023-03-14T15:22:29;12.30;;;8.37;;
59062;SDS011;44851;45.648;9.004;2023-03-14T15:24:55;12.53;;;9.87;;
59062;SDS011;44851;45.648;9.004;2023-03-14T15:27:20;12.60;;;9.37;;
59062;SDS011;44851;45.648;9.004;2023-03-14T15:29:46;12.70;;;9.53;;
59062;SDS011;44851;45.648;9.004;2023-03-14T15:32:12;12.97;;;9.57;;
59062;SDS011;44851;45.648;9.004;2023-03-14T15:34:39;14.00;;;9.20;;
59062;SDS011;44851;45.648;9.004;2023-03-14T15:37:10;12.23;;;8.90;;
59062;SDS011;44851;45.648;9.004;2023-03-14T15:39:43;13.67;;;8.67;;
59062;SDS011;44851;45.648;9.004;2023-03-14T15:42:08;13.70;;;9.93;;
59062;SDS011;44851;45.648;9.004;2023-03-14T15:44:34;12.37;;;8.53;;
59062;SDS011;44851;45.648;9.004;2023-03-14T15:47:00;13.50;;;9.10;;
59062;SDS011;44851;45.648;9.004;2023-03-14T15:49:26;12.87;;;9.57;;
59062;SDS011;44851;45.648;9.004;2023-03-14T15:51:51;14.83;;;9.30;;